sensor_id;sensor_type;location;lat;lon;timestamp;temperature;humidity
2158;DHT22;41972;48.774;9.282;2023-01-13T00:01:23;9.60;99.90
2158;DHT22;41972;48.774;9.282;2023-01-13T00:03:49;9.60;99.90
2158;DHT22;41972;48.774;9.282;2023-01-13T00:06:18;9.60;99.90
2158;DHT22;41972;48.774;9.282;2023-01-13T00:08:47;9.60;99.90
2158;DHT22;41972;48.774;9.282;2023-01-13T00:11:13;9.70;99.90
2158;DHT22;41972;48.774;9.282;2023-01-13T00:13:38;9.70;99.90
2158;DHT22;41972;48.774;9.282;2023-01-13T00:16:06;9.70;99.90
2158;DHT22;41972;48.774;9.282;2023-01-13T00:18:33;9.70;99.90
2158;DHT22;41972;48.774;9.282;2023-01-13T00:23:26;9.70;99.90
2158;DHT22;41972;48.774;9.282;2023-01-13T00:25:55;9.70;99.90
2158;DHT22;41972;48.774;9.282;2023-01-13T00:28:20;9.70;99.90
2158;DHT22;41972;48.774;9.282;2023-01-13T00:30:46;9.70;99.90
2158;DHT22;41972;48.774;9.282;2023-01-13T00:33:11;9.70;99.90
2158;DHT22;41972;48.774;9.282;2023-01-13T00:35:37;9.60;99.90
2158;DHT22;41972;48.774;9.282;2023-01-13T00:38:02;9.70;99.90
2158;DHT22;41972;48.774;9.282;2023-01-13T00:40:28;9.70;99.90
2158;DHT22;41972;48.774;9.282;2023-01-13T00:42:53;9.70;99.90
2158;DHT22;41972;48.774;9.282;2023-01-13T00:45:37;9.70;99.90
2158;DHT22;41972;48.774;9.282;2023-01-13T00:48:03;9.70;99.90
2158;DHT22;41972;48.774;9.282;2023-01-13T00:50:28;9.70;99.90
2158;DHT22;41972;48.774;9.282;2023-01-13T00:52:54;9.80;99.90
2158;DHT22;41972;48.774;9.282;2023-01-13T00:55:20;9.80;99.90
2158;DHT22;41972;48.774;9.282;2023-01-13T00:57:45;9.70;99.90
2158;DHT22;41972;48.774;9.282;2023-01-13T01:00:11;9.70;99.90
2158;DHT22;41972;48.774;9.282;2023-01-13T01:02:37;9.70;99.90
2158;DHT22;41972;48.774;9.282;2023-01-13T01:05:03;9.60;99.90
2158;DHT22;41972;48.774;9.282;2023-01-13T01:07:28;9.60;99.90
2158;DHT22;41972;48.774;9.282;2023-01-13T01:09:54;9.70;99.90
2158;DHT22;41972;48.774;9.282;2023-01-13T01:12:19;9.80;99.90
2158;DHT22;41972;48.774;9.282;2023-01-13T01:14:45;9.70;99.90
2158;DHT22;41972;48.774;9.282;2023-01-13T01:17:10;9.70;99.90
2158;DHT22;41972;48.774;9.282;2023-01-13T01:19:36;9.60;99.90
2158;DHT22;41972;48.774;9.282;2023-01-13T01:22:03;9.70;99.90
2158;DHT22;41972;48.774;9.282;2023-01-13T01:24:28;9.70;99.90
2158;DHT22;41972;48.774;9.282;2023-01-13T01:26:54;9.70;99.90
2158;DHT22;41972;48.774;9.282;2023-01-13T01:29:19;9.80;99.90
2158;DHT22;41972;48.774;9.282;2023-01-13T01:31:45;9.80;99.90
2158;DHT22;41972;48.774;9.282;2023-01-13T01:34:12;10.00;99.90
2158;DHT22;41972;48.774;9.282;2023-01-13T01:36:38;10.10;99.90
2158;DHT22;41972;48.774;9.282;2023-01-13T01:39:04;10.10;99.90
2158;DHT22;41972;48.774;9.282;2023-01-13T01:41:31;10.10;99.90
2158;DHT22;41972;48.774;9.282;2023-01-13T01:44:00;10.10;99.90
2158;DHT22;41972;48.774;9.282;2023-01-13T01:46:41;10.10;99.90
2158;DHT22;41972;48.774;9.282;2023-01-13T01:49:17;10.10;99.90
2158;DHT22;41972;48.774;9.282;2023-01-13T01:51:47;10.10;99.90
2158;DHT22;41972;48.774;9.282;2023-01-13T01:54:21;10.10;99.90
2158;DHT22;41972;48.774;9.282;2023-01-13T01:56:48;10.00;99.90
2158;DHT22;41972;48.774;9.282;2023-01-13T01:59:15;10.00;99.90
2158;DHT22;41972;48.774;9.282;2023-01-13T02:01:41;10.00;99.90
2158;DHT22;41972;48.774;9.282;2023-01-13T02:04:14;10.00;99.90
2158;DHT22;41972;48.774;9.282;2023-01-13T02:06:41;10.00;99.90
2158;DHT22;41972;48.774;9.282;2023-01-13T02:09:07;10.10;99.90
2158;DHT22;41972;48.774;9.282;2023-01-13T02:11:34;10.10;99.90
2158;DHT22;41972;48.774;9.282;2023-01-13T02:14:25;10.00;99.90
2158;DHT22;41972;48.774;9.282;2023-01-13T02:17:02;10.00;99.90
2158;DHT22;41972;48.774;9.282;2023-01-13T02:22:32;10.10;99.90
2158;DHT22;41972;48.774;9.282;2023-01-13T02:39:03;10.00;99.90
2158;DHT22;41972;48.774;9.282;2023-01-13T02:41:53;10.10;99.90
2158;DHT22;41972;48.774;9.282;2023-01-13T02:44:43;10.00;99.90
2158;DHT22;41972;48.774;9.282;2023-01-13T02:47:19;10.00;99.90
2158;DHT22;41972;48.774;9.282;2023-01-13T02:49:48;10.00;99.90
2158;DHT22;41972;48.774;9.282;2023-01-13T02:54:50;10.00;99.90
2158;DHT22;41972;48.774;9.282;2023-01-13T02:57:17;9.90;99.90
2158;DHT22;41972;48.774;9.282;2023-01-13T02:59:44;9.90;99.90
2158;DHT22;41972;48.774;9.282;2023-01-13T03:02:12;9.90;99.90
2158;DHT22;41972;48.774;9.282;2023-01-13T03:04:46;9.90;99.90
2158;DHT22;41972;48.774;9.282;2023-01-13T03:07:22;9.90;99.90
2158;DHT22;41972;48.774;9.282;2023-01-13T03:10:01;9.90;99.90
2158;DHT22;41972;48.774;9.282;2023-01-13T03:12:43;9.90;99.90
2158;DHT22;41972;48.774;9.282;2023-01-13T03:15:27;9.90;99.90
2158;DHT22;41972;48.774;9.282;2023-01-13T03:18:22;9.80;99.90
2158;DHT22;41972;48.774;9.282;2023-01-13T03:21:14;9.80;99.90
2158;DHT22;41972;48.774;9.282;2023-01-13T03:23:49;9.80;99.90
2158;DHT22;41972;48.774;9.282;2023-01-13T03:26:47;9.80;99.90
2158;DHT22;41972;48.774;9.282;2023-01-13T03:30:06;9.80;99.90
2158;DHT22;41972;48.774;9.282;2023-01-13T03:32:36;9.80;99.90
2158;DHT22;41972;48.774;9.282;2023-01-13T03:35:08;9.90;99.90
2158;DHT22;41972;48.774;9.282;2023-01-13T03:37:38;9.80;99.90
2158;DHT22;41972;48.774;9.282;2023-01-13T03:40:14;9.90;99.90
2158;DHT22;41972;48.774;9.282;2023-01-13T03:42:43;9.80;99.90
2158;DHT22;41972;48.774;9.282;2023-01-13T03:45:31;9.80;99.90
2158;DHT22;41972;48.774;9.282;2023-01-13T03:48:02;9.70;99.90
2158;DHT22;41972;48.774;9.282;2023-01-13T03:50:34;9.70;99.90
2158;DHT22;41972;48.774;9.282;2023-01-13T03:53:26;9.70;99.90
2158;DHT22;41972;48.774;9.282;2023-01-13T03:56:42;9.80;99.90
2158;DHT22;41972;48.774;9.282;2023-01-13T03:58:44;9.70;99.90
2158;DHT22;41972;48.774;9.282;2023-01-13T04:01:21;9.70;99.90
2158;DHT22;41972;48.774;9.282;2023-01-13T04:09:00;9.60;99.90
2158;DHT22;41972;48.774;9.282;2023-01-13T04:11:33;9.60;99.90
2158;DHT22;41972;48.774;9.282;2023-01-13T04:14:02;9.40;99.90
2158;DHT22;41972;48.774;9.282;2023-01-13T04:16:28;9.40;99.90
2158;DHT22;41972;48.774;9.282;2023-01-13T04:18:54;9.50;99.90
2158;DHT22;41972;48.774;9.282;2023-01-13T04:21:19;9.50;99.90
2158;DHT22;41972;48.774;9.282;2023-01-13T04:23:45;9.50;99.90
2158;DHT22;41972;48.774;9.282;2023-01-13T04:26:10;9.60;99.90
2158;DHT22;41972;48.774;9.282;2023-01-13T04:28:36;9.50;99.90
2158;DHT22;41972;48.774;9.282;2023-01-13T04:31:02;9.40;99.90
2158;DHT22;41972;48.774;9.282;2023-01-13T04:33:27;9.50;99.90
2158;DHT22;41972;48.774;9.282;2023-01-13T04:35:53;9.50;99.90
2158;DHT22;41972;48.774;9.282;2023-01-13T04:38:20;9.40;99.90
2158;DHT22;41972;48.774;9.282;2023-01-13T04:40:46;9.40;99.90
2158;DHT22;41972;48.774;9.282;2023-01-13T04:43:11;9.50;99.90
2158;DHT22;41972;48.774;9.282;2023-01-13T04:45:37;9.60;99.90
2158;DHT22;41972;48.774;9.282;2023-01-13T04:48:03;9.60;99.90
2158;DHT22;41972;48.774;9.282;2023-01-13T04:50:29;9.60;99.90
2158;DHT22;41972;48.774;9.282;2023-01-13T04:52:55;9.60;99.90
2158;DHT22;41972;48.774;9.282;2023-01-13T04:55:22;9.70;99.90
2158;DHT22;41972;48.774;9.282;2023-01-13T04:57:48;9.80;99.90
2158;DHT22;41972;48.774;9.282;2023-01-13T05:00:16;9.80;99.90
2158;DHT22;41972;48.774;9.282;2023-01-13T05:02:42;9.80;99.90
2158;DHT22;41972;48.774;9.282;2023-01-13T05:05:08;9.70;99.90
2158;DHT22;41972;48.774;9.282;2023-01-13T05:07:34;9.70;99.90
2158;DHT22;41972;48.774;9.282;2023-01-13T05:09:59;9.70;99.90
2158;DHT22;41972;48.774;9.282;2023-01-13T05:12:25;9.80;99.90
2158;DHT22;41972;48.774;9.282;2023-01-13T05:15:13;9.90;99.90
2158;DHT22;41972;48.774;9.282;2023-01-13T05:17:58;9.90;99.90
2158;DHT22;41972;48.774;9.282;2023-01-13T05:20:25;9.90;99.90
2158;DHT22;41972;48.774;9.282;2023-01-13T05:22:50;10.00;99.90
2158;DHT22;41972;48.774;9.282;2023-01-13T05:25:38;10.00;99.90
2158;DHT22;41972;48.774;9.282;2023-01-13T05:28:06;10.00;99.90
2158;DHT22;41972;48.774;9.282;2023-01-13T05:30:37;10.00;99.90
2158;DHT22;41972;48.774;9.282;2023-01-13T05:33:03;10.10;99.90
2158;DHT22;41972;48.774;9.282;2023-01-13T05:35:29;10.00;99.90
2158;DHT22;41972;48.774;9.282;2023-01-13T05:37:55;10.10;99.90
2158;DHT22;41972;48.774;9.282;2023-01-13T05:40:22;10.00;99.90
2158;DHT22;41972;48.774;9.282;2023-01-13T05:43:14;10.00;99.90
2158;DHT22;41972;48.774;9.282;2023-01-13T05:45:56;10.10;99.90
2158;DHT22;41972;48.774;9.282;2023-01-13T05:48:30;10.00;99.90
2158;DHT22;41972;48.774;9.282;2023-01-13T05:50:56;10.10;99.90
2158;DHT22;41972;48.774;9.282;2023-01-13T05:53:23;10.00;99.90
2158;DHT22;41972;48.774;9.282;2023-01-13T05:55:49;10.00;99.90
2158;DHT22;41972;48.774;9.282;2023-01-13T05:58:15;10.00;99.90
2158;DHT22;41972;48.774;9.282;2023-01-13T06:00:41;9.90;99.90
2158;DHT22;41972;48.774;9.282;2023-01-13T06:03:08;9.80;99.90
2158;DHT22;41972;48.774;9.282;2023-01-13T06:05:34;9.80;99.90
2158;DHT22;41972;48.774;9.282;2023-01-13T06:08:01;9.80;99.90
2158;DHT22;41972;48.774;9.282;2023-01-13T06:10:28;9.80;99.90
2158;DHT22;41972;48.774;9.282;2023-01-13T06:12:54;9.70;99.90
2158;DHT22;41972;48.774;9.282;2023-01-13T06:15:20;9.70;99.90
2158;DHT22;41972;48.774;9.282;2023-01-13T06:17:46;9.70;99.90
2158;DHT22;41972;48.774;9.282;2023-01-13T06:20:13;9.70;99.90
2158;DHT22;41972;48.774;9.282;2023-01-13T06:22:41;9.70;99.90
2158;DHT22;41972;48.774;9.282;2023-01-13T06:25:11;9.80;99.90
2158;DHT22;41972;48.774;9.282;2023-01-13T06:27:39;10.00;99.90
2158;DHT22;41972;48.774;9.282;2023-01-13T06:30:05;10.00;99.90
2158;DHT22;41972;48.774;9.282;2023-01-13T06:32:38;10.00;99.90
2158;DHT22;41972;48.774;9.282;2023-01-13T06:35:08;10.00;99.90
2158;DHT22;41972;48.774;9.282;2023-01-13T06:37:36;10.10;99.90
2158;DHT22;41972;48.774;9.282;2023-01-13T06:40:03;10.10;99.90
2158;DHT22;41972;48.774;9.282;2023-01-13T06:42:32;10.00;99.90
2158;DHT22;41972;48.774;9.282;2023-01-13T06:45:17;10.00;99.90
2158;DHT22;41972;48.774;9.282;2023-01-13T06:47:43;10.00;99.90
2158;DHT22;41972;48.774;9.282;2023-01-13T06:50:09;10.00;99.90
2158;DHT22;41972;48.774;9.282;2023-01-13T06:52:35;9.90;99.90
2158;DHT22;41972;48.774;9.282;2023-01-13T06:55:00;10.00;99.90
2158;DHT22;41972;48.774;9.282;2023-01-13T06:57:26;9.90;99.90
2158;DHT22;41972;48.774;9.282;2023-01-13T06:59:52;9.90;99.90
2158;DHT22;41972;48.774;9.282;2023-01-13T07:02:17;9.80;99.90
2158;DHT22;41972;48.774;9.282;2023-01-13T07:04:43;9.70;99.90
2158;DHT22;41972;48.774;9.282;2023-01-13T07:07:11;9.80;99.90
2158;DHT22;41972;48.774;9.282;2023-01-13T07:09:37;9.80;99.90
2158;DHT22;41972;48.774;9.282;2023-01-13T07:12:03;9.80;99.90
2158;DHT22;41972;48.774;9.282;2023-01-13T07:14:28;9.90;99.90
2158;DHT22;41972;48.774;9.282;2023-01-13T07:17:13;9.80;99.90
2158;DHT22;41972;48.774;9.282;2023-01-13T07:19:38;9.80;99.90
2158;DHT22;41972;48.774;9.282;2023-01-13T07:22:04;9.90;99.90
2158;DHT22;41972;48.774;9.282;2023-01-13T07:24:29;9.90;99.90
2158;DHT22;41972;48.774;9.282;2023-01-13T07:26:55;9.90;99.90
2158;DHT22;41972;48.774;9.282;2023-01-13T07:29:20;9.90;99.90
2158;DHT22;41972;48.774;9.282;2023-01-13T07:31:46;9.90;99.90
2158;DHT22;41972;48.774;9.282;2023-01-13T07:34:12;9.80;99.90
2158;DHT22;41972;48.774;9.282;2023-01-13T07:36:38;9.80;99.90
2158;DHT22;41972;48.774;9.282;2023-01-13T07:39:04;9.80;99.90
2158;DHT22;41972;48.774;9.282;2023-01-13T07:41:29;9.70;99.90
2158;DHT22;41972;48.774;9.282;2023-01-13T07:44:13;9.80;99.90
2158;DHT22;41972;48.774;9.282;2023-01-13T07:46:39;9.80;99.90
2158;DHT22;41972;48.774;9.282;2023-01-13T07:49:05;9.80;99.90
2158;DHT22;41972;48.774;9.282;2023-01-13T07:51:33;9.70;99.90
2158;DHT22;41972;48.774;9.282;2023-01-13T07:53:59;9.60;99.90
2158;DHT22;41972;48.774;9.282;2023-01-13T07:56:25;9.60;99.90
2158;DHT22;41972;48.774;9.282;2023-01-13T07:58:50;9.70;99.90
2158;DHT22;41972;48.774;9.282;2023-01-13T08:01:17;9.80;99.90
2158;DHT22;41972;48.774;9.282;2023-01-13T08:03:43;9.80;99.90
2158;DHT22;41972;48.774;9.282;2023-01-13T08:06:10;9.90;99.90
2158;DHT22;41972;48.774;9.282;2023-01-13T08:08:36;10.00;99.90
2158;DHT22;41972;48.774;9.282;2023-01-13T08:11:04;10.00;99.90
2158;DHT22;41972;48.774;9.282;2023-01-13T08:13:30;10.00;99.90
2158;DHT22;41972;48.774;9.282;2023-01-13T08:16:04;10.00;99.90
2158;DHT22;41972;48.774;9.282;2023-01-13T08:18:31;10.10;99.90
2158;DHT22;41972;48.774;9.282;2023-01-13T08:21:01;10.00;99.90
2158;DHT22;41972;48.774;9.282;2023-01-13T08:23:27;10.10;99.90
2158;DHT22;41972;48.774;9.282;2023-01-13T08:25:52;10.10;99.90
2158;DHT22;41972;48.774;9.282;2023-01-13T08:28:18;10.00;99.90
2158;DHT22;41972;48.774;9.282;2023-01-13T08:30:43;10.20;99.90
2158;DHT22;41972;48.774;9.282;2023-01-13T08:33:10;10.20;99.90
2158;DHT22;41972;48.774;9.282;2023-01-13T08:35:37;10.20;99.90
2158;DHT22;41972;48.774;9.282;2023-01-13T08:38:04;10.40;99.90
2158;DHT22;41972;48.774;9.282;2023-01-13T08:40:29;10.40;99.90
2158;DHT22;41972;48.774;9.282;2023-01-13T08:42:56;10.30;99.90
2158;DHT22;41972;48.774;9.282;2023-01-13T08:45:22;10.30;99.90
2158;DHT22;41972;48.774;9.282;2023-01-13T08:47:47;9.90;99.90
2158;DHT22;41972;48.774;9.282;2023-01-13T08:50:13;9.90;99.90
2158;DHT22;41972;48.774;9.282;2023-01-13T08:52:39;9.90;99.90
2158;DHT22;41972;48.774;9.282;2023-01-13T08:55:05;9.80;99.90
2158;DHT22;41972;48.774;9.282;2023-01-13T08:57:31;9.70;99.90
2158;DHT22;41972;48.774;9.282;2023-01-13T08:59:56;9.60;99.90
2158;DHT22;41972;48.774;9.282;2023-01-13T09:02:23;9.90;99.90
2158;DHT22;41972;48.774;9.282;2023-01-13T09:04:50;9.90;99.90
2158;DHT22;41972;48.774;9.282;2023-01-13T09:07:16;9.80;99.90
2158;DHT22;41972;48.774;9.282;2023-01-13T09:09:42;10.00;99.90
2158;DHT22;41972;48.774;9.282;2023-01-13T09:12:12;10.20;99.90
2158;DHT22;41972;48.774;9.282;2023-01-13T09:14:57;9.80;99.90
2158;DHT22;41972;48.774;9.282;2023-01-13T09:17:22;9.50;99.90
2158;DHT22;41972;48.774;9.282;2023-01-13T09:19:48;9.40;99.90
2158;DHT22;41972;48.774;9.282;2023-01-13T09:22:16;9.40;99.90
2158;DHT22;41972;48.774;9.282;2023-01-13T09:24:42;9.40;99.90
2158;DHT22;41972;48.774;9.282;2023-01-13T09:27:12;9.00;99.90
2158;DHT22;41972;48.774;9.282;2023-01-13T09:29:38;8.70;99.90
2158;DHT22;41972;48.774;9.282;2023-01-13T09:32:04;8.40;99.90
2158;DHT22;41972;48.774;9.282;2023-01-13T09:34:31;8.30;99.90
2158;DHT22;41972;48.774;9.282;2023-01-13T09:37:16;8.30;99.90
2158;DHT22;41972;48.774;9.282;2023-01-13T09:39:41;8.30;99.90
2158;DHT22;41972;48.774;9.282;2023-01-13T09:53:33;8.70;99.90
2158;DHT22;41972;48.774;9.282;2023-01-13T09:56:01;9.00;99.90
2158;DHT22;41972;48.774;9.282;2023-01-13T09:58:27;8.90;99.90
2158;DHT22;41972;48.774;9.282;2023-01-13T10:03:35;9.20;99.90
2158;DHT22;41972;48.774;9.282;2023-01-13T10:06:02;9.10;99.90
2158;DHT22;41972;48.774;9.282;2023-01-13T10:08:40;9.20;99.90
2158;DHT22;41972;48.774;9.282;2023-01-13T10:11:12;9.00;99.90
2158;DHT22;41972;48.774;9.282;2023-01-13T10:14:00;8.90;99.90
2158;DHT22;41972;48.774;9.282;2023-01-13T10:16:30;8.90;99.90
2158;DHT22;41972;48.774;9.282;2023-01-13T10:21:56;8.90;99.90
2158;DHT22;41972;48.774;9.282;2023-01-13T10:27:34;8.70;99.90
2158;DHT22;41972;48.774;9.282;2023-01-13T10:30:24;8.60;99.90
2158;DHT22;41972;48.774;9.282;2023-01-13T10:32:57;8.70;99.90
2158;DHT22;41972;48.774;9.282;2023-01-13T10:38:16;9.00;99.90
2158;DHT22;41972;48.774;9.282;2023-01-13T10:40:54;9.40;99.90
2158;DHT22;41972;48.774;9.282;2023-01-13T10:43:20;9.90;99.90
2158;DHT22;41972;48.774;9.282;2023-01-13T10:45:55;11.20;99.90
2158;DHT22;41972;48.774;9.282;2023-01-13T10:48:42;13.20;99.90
2158;DHT22;41972;48.774;9.282;2023-01-13T10:54:01;10.30;99.90
2158;DHT22;41972;48.774;9.282;2023-01-13T10:56:30;9.80;99.90
2158;DHT22;41972;48.774;9.282;2023-01-13T10:59:29;9.80;99.90
2158;DHT22;41972;48.774;9.282;2023-01-13T11:04:39;9.70;99.90
2158;DHT22;41972;48.774;9.282;2023-01-13T11:07:33;9.90;99.90
2158;DHT22;41972;48.774;9.282;2023-01-13T11:15:51;8.50;99.90
2158;DHT22;41972;48.774;9.282;2023-01-13T11:21:28;8.20;99.90
2158;DHT22;41972;48.774;9.282;2023-01-13T11:24:14;8.30;99.90
2158;DHT22;41972;48.774;9.282;2023-01-13T11:27:10;8.40;99.90
2158;DHT22;41972;48.774;9.282;2023-01-13T11:33:01;8.40;99.90
2158;DHT22;41972;48.774;9.282;2023-01-13T11:35:30;8.40;99.90
2158;DHT22;41972;48.774;9.282;2023-01-13T11:38:05;8.60;99.90
2158;DHT22;41972;48.774;9.282;2023-01-13T11:40:39;8.40;99.90
2158;DHT22;41972;48.774;9.282;2023-01-13T11:43:21;8.30;99.90
2158;DHT22;41972;48.774;9.282;2023-01-13T11:45:52;8.20;99.90
2158;DHT22;41972;48.774;9.282;2023-01-13T11:48:22;7.90;99.90
2158;DHT22;41972;48.774;9.282;2023-01-13T11:56:37;8.10;99.90
2158;DHT22;41972;48.774;9.282;2023-01-13T12:04:51;8.10;99.90
2158;DHT22;41972;48.774;9.282;2023-01-13T12:12:55;8.60;99.90
2158;DHT22;41972;48.774;9.282;2023-01-13T12:15:34;8.80;99.90
2158;DHT22;41972;48.774;9.282;2023-01-13T12:18:30;9.00;99.90
2158;DHT22;41972;48.774;9.282;2023-01-13T12:23:29;8.10;99.90
2158;DHT22;41972;48.774;9.282;2023-01-13T12:26:00;7.90;99.90
2158;DHT22;41972;48.774;9.282;2023-01-13T12:28:45;8.30;99.90
2158;DHT22;41972;48.774;9.282;2023-01-13T12:31:14;8.30;99.90
2158;DHT22;41972;48.774;9.282;2023-01-13T12:36:28;8.30;99.90
2158;DHT22;41972;48.774;9.282;2023-01-13T12:42:23;8.90;99.90
2158;DHT22;41972;48.774;9.282;2023-01-13T12:47:40;8.80;99.90
2158;DHT22;41972;48.774;9.282;2023-01-13T12:52:46;8.80;99.90
2158;DHT22;41972;48.774;9.282;2023-01-13T12:55:24;8.90;99.90
2158;DHT22;41972;48.774;9.282;2023-01-13T13:01:00;9.10;99.90
2158;DHT22;41972;48.774;9.282;2023-01-13T13:03:34;8.90;99.90
2158;DHT22;41972;48.774;9.282;2023-01-13T13:06:12;9.10;99.90
2158;DHT22;41972;48.774;9.282;2023-01-13T13:08:58;9.10;99.90
2158;DHT22;41972;48.774;9.282;2023-01-13T13:11:38;9.10;99.90
2158;DHT22;41972;48.774;9.282;2023-01-13T13:19:55;8.90;99.90
2158;DHT22;41972;48.774;9.282;2023-01-13T13:22:37;9.00;99.90
2158;DHT22;41972;48.774;9.282;2023-01-13T13:25:21;8.90;99.90
2158;DHT22;41972;48.774;9.282;2023-01-13T13:27:58;8.90;99.90
2158;DHT22;41972;48.774;9.282;2023-01-13T13:30:27;8.90;99.90
2158;DHT22;41972;48.774;9.282;2023-01-13T13:33:07;9.00;99.90
2158;DHT22;41972;48.774;9.282;2023-01-13T13:35:54;9.00;99.90
2158;DHT22;41972;48.774;9.282;2023-01-13T13:41:58;8.90;99.90
2158;DHT22;41972;48.774;9.282;2023-01-13T13:44:46;8.90;99.90
2158;DHT22;41972;48.774;9.282;2023-01-13T13:47:38;8.80;99.90
2158;DHT22;41972;48.774;9.282;2023-01-13T13:50:10;8.90;99.90
2158;DHT22;41972;48.774;9.282;2023-01-13T13:53:00;8.90;99.90
2158;DHT22;41972;48.774;9.282;2023-01-13T13:55:29;9.00;99.90
2158;DHT22;41972;48.774;9.282;2023-01-13T13:57:56;9.10;99.90
2158;DHT22;41972;48.774;9.282;2023-01-13T14:00:31;9.20;99.90
2158;DHT22;41972;48.774;9.282;2023-01-13T14:03:03;9.30;99.90
2158;DHT22;41972;48.774;9.282;2023-01-13T14:05:35;9.30;99.90
2158;DHT22;41972;48.774;9.282;2023-01-13T14:08:16;9.00;99.90
2158;DHT22;41972;48.774;9.282;2023-01-13T14:10:43;9.10;99.90
2158;DHT22;41972;48.774;9.282;2023-01-13T14:13:26;8.90;99.90
2158;DHT22;41972;48.774;9.282;2023-01-13T14:16:03;8.90;99.90
2158;DHT22;41972;48.774;9.282;2023-01-13T14:18:31;8.60;99.90
2158;DHT22;41972;48.774;9.282;2023-01-13T14:21:03;8.30;99.90
2158;DHT22;41972;48.774;9.282;2023-01-13T14:23:31;8.10;99.90
2158;DHT22;41972;48.774;9.282;2023-01-13T14:26:08;7.50;99.90
2158;DHT22;41972;48.774;9.282;2023-01-13T14:28:38;7.40;99.90
2158;DHT22;41972;48.774;9.282;2023-01-13T14:31:06;7.20;99.90
2158;DHT22;41972;48.774;9.282;2023-01-13T14:33:34;7.10;99.90
2158;DHT22;41972;48.774;9.282;2023-01-13T14:38:28;7.00;99.90
2158;DHT22;41972;48.774;9.282;2023-01-13T14:40:54;7.00;99.90
2158;DHT22;41972;48.774;9.282;2023-01-13T14:43:22;7.00;99.90
2158;DHT22;41972;48.774;9.282;2023-01-13T14:45:57;7.00;99.90
2158;DHT22;41972;48.774;9.282;2023-01-13T14:48:31;7.00;99.90
2158;DHT22;41972;48.774;9.282;2023-01-13T14:51:04;7.00;99.90
2158;DHT22;41972;48.774;9.282;2023-01-13T14:53:41;6.90;99.90
2158;DHT22;41972;48.774;9.282;2023-01-13T14:59:33;6.90;99.90
2158;DHT22;41972;48.774;9.282;2023-01-13T15:02:00;6.80;99.90
2158;DHT22;41972;48.774;9.282;2023-01-13T15:04:31;6.80;99.90
2158;DHT22;41972;48.774;9.282;2023-01-13T15:06:58;6.90;99.90
2158;DHT22;41972;48.774;9.282;2023-01-13T15:09:27;7.00;99.90
2158;DHT22;41972;48.774;9.282;2023-01-13T15:11:54;7.00;99.90
2158;DHT22;41972;48.774;9.282;2023-01-13T15:14:29;6.70;99.90
2158;DHT22;41972;48.774;9.282;2023-01-13T15:16:59;6.80;99.90
2158;DHT22;41972;48.774;9.282;2023-01-13T15:19:24;6.80;99.90
2158;DHT22;41972;48.774;9.282;2023-01-13T15:21:50;6.80;99.90
2158;DHT22;41972;48.774;9.282;2023-01-13T15:24:16;6.60;99.90
2158;DHT22;41972;48.774;9.282;2023-01-13T15:26:41;6.60;99.90
2158;DHT22;41972;48.774;9.282;2023-01-13T15:29:12;6.60;99.90
2158;DHT22;41972;48.774;9.282;2023-01-13T15:31:39;6.60;99.90
2158;DHT22;41972;48.774;9.282;2023-01-13T15:34:04;6.60;99.90
2158;DHT22;41972;48.774;9.282;2023-01-13T15:36:31;6.60;99.90
2158;DHT22;41972;48.774;9.282;2023-01-13T15:38:59;6.60;99.90
2158;DHT22;41972;48.774;9.282;2023-01-13T15:41:25;6.60;99.90
2158;DHT22;41972;48.774;9.282;2023-01-13T15:44:12;6.40;99.90
2158;DHT22;41972;48.774;9.282;2023-01-13T15:46:58;6.30;99.90
2158;DHT22;41972;48.774;9.282;2023-01-13T15:49:38;6.20;99.90
2158;DHT22;41972;48.774;9.282;2023-01-13T15:52:18;6.00;99.90
2158;DHT22;41972;48.774;9.282;2023-01-13T15:54:44;5.90;99.90
2158;DHT22;41972;48.774;9.282;2023-01-13T15:57:26;5.90;99.90
2158;DHT22;41972;48.774;9.282;2023-01-13T15:59:54;5.80;99.90
2158;DHT22;41972;48.774;9.282;2023-01-13T16:02:20;5.60;99.90
2158;DHT22;41972;48.774;9.282;2023-01-13T16:04:47;5.60;99.90
2158;DHT22;41972;48.774;9.282;2023-01-13T16:07:17;5.70;99.90
2158;DHT22;41972;48.774;9.282;2023-01-13T16:09:43;5.80;99.90
2158;DHT22;41972;48.774;9.282;2023-01-13T16:12:10;5.80;99.90
2158;DHT22;41972;48.774;9.282;2023-01-13T16:14:36;5.80;99.90
2158;DHT22;41972;48.774;9.282;2023-01-13T16:17:21;5.60;99.90
2158;DHT22;41972;48.774;9.282;2023-01-13T16:19:47;5.50;99.90
2158;DHT22;41972;48.774;9.282;2023-01-13T16:22:13;5.60;99.90
2158;DHT22;41972;48.774;9.282;2023-01-13T16:24:39;5.60;99.90
2158;DHT22;41972;48.774;9.282;2023-01-13T16:27:22;5.40;99.90
2158;DHT22;41972;48.774;9.282;2023-01-13T16:29:49;5.40;99.90
2158;DHT22;41972;48.774;9.282;2023-01-13T16:32:15;5.60;99.90
2158;DHT22;41972;48.774;9.282;2023-01-13T16:34:41;5.70;99.90
2158;DHT22;41972;48.774;9.282;2023-01-13T16:37:20;5.80;99.90
2158;DHT22;41972;48.774;9.282;2023-01-13T16:39:47;6.00;99.90
2158;DHT22;41972;48.774;9.282;2023-01-13T16:42:13;6.10;99.90
2158;DHT22;41972;48.774;9.282;2023-01-13T16:44:38;6.00;99.90
2158;DHT22;41972;48.774;9.282;2023-01-13T16:47:05;6.00;99.90
2158;DHT22;41972;48.774;9.282;2023-01-13T16:49:30;5.70;99.90
2158;DHT22;41972;48.774;9.282;2023-01-13T16:51:56;5.70;99.90
2158;DHT22;41972;48.774;9.282;2023-01-13T16:54:21;5.70;99.90
2158;DHT22;41972;48.774;9.282;2023-01-13T16:56:47;5.70;99.90
2158;DHT22;41972;48.774;9.282;2023-01-13T16:59:13;5.70;99.90
2158;DHT22;41972;48.774;9.282;2023-01-13T17:01:41;5.50;99.90
2158;DHT22;41972;48.774;9.282;2023-01-13T17:04:15;5.50;99.90
2158;DHT22;41972;48.774;9.282;2023-01-13T17:06:54;5.50;99.90
2158;DHT22;41972;48.774;9.282;2023-01-13T17:09:24;5.60;99.90
2158;DHT22;41972;48.774;9.282;2023-01-13T17:11:50;5.50;99.90
2158;DHT22;41972;48.774;9.282;2023-01-13T17:14:15;5.40;99.90
2158;DHT22;41972;48.774;9.282;2023-01-13T17:16:43;5.40;99.90
2158;DHT22;41972;48.774;9.282;2023-01-13T17:19:09;5.40;99.90
2158;DHT22;41972;48.774;9.282;2023-01-13T17:21:36;5.40;99.90
2158;DHT22;41972;48.774;9.282;2023-01-13T17:24:01;5.40;99.90
2158;DHT22;41972;48.774;9.282;2023-01-13T17:26:38;5.50;99.90
2158;DHT22;41972;48.774;9.282;2023-01-13T17:29:11;5.50;99.90
2158;DHT22;41972;48.774;9.282;2023-01-13T17:31:37;5.70;99.90
2158;DHT22;41972;48.774;9.282;2023-01-13T17:34:03;5.70;99.90
2158;DHT22;41972;48.774;9.282;2023-01-13T17:36:29;5.80;99.90
2158;DHT22;41972;48.774;9.282;2023-01-13T17:38:55;6.00;99.90
2158;DHT22;41972;48.774;9.282;2023-01-13T17:41:21;6.00;99.90
2158;DHT22;41972;48.774;9.282;2023-01-13T17:43:47;5.90;99.90
2158;DHT22;41972;48.774;9.282;2023-01-13T17:46:14;6.00;99.90
2158;DHT22;41972;48.774;9.282;2023-01-13T17:48:43;6.10;99.90
2158;DHT22;41972;48.774;9.282;2023-01-13T17:51:11;6.20;99.90
2158;DHT22;41972;48.774;9.282;2023-01-13T17:53:37;6.30;99.90
2158;DHT22;41972;48.774;9.282;2023-01-13T17:56:06;6.30;99.90
2158;DHT22;41972;48.774;9.282;2023-01-13T17:58:34;6.30;99.90
2158;DHT22;41972;48.774;9.282;2023-01-13T18:00:59;6.30;99.90
2158;DHT22;41972;48.774;9.282;2023-01-13T18:03:25;6.40;99.90
2158;DHT22;41972;48.774;9.282;2023-01-13T18:05:50;6.40;99.90
2158;DHT22;41972;48.774;9.282;2023-01-13T18:08:16;6.50;99.90
2158;DHT22;41972;48.774;9.282;2023-01-13T18:10:41;6.50;99.90
2158;DHT22;41972;48.774;9.282;2023-01-13T18:13:07;6.50;99.90
2158;DHT22;41972;48.774;9.282;2023-01-13T18:15:34;6.60;99.90
2158;DHT22;41972;48.774;9.282;2023-01-13T18:17:59;6.60;99.90